Time;durP1;ratioP1;P1;durP2;ratioP2;P2;SDS_P1;SDS_P2;PMS_P1;PMS_P2;Temp;Humidity;BMP_temperature;BMP_pressure;BME280_temperature;BME280_humidity;BME280_pressure;Samples;Min_cycle;Max_cycle;Signal;HPM_P1;HPM_P2
2022/11/28 00:00:16;;;;;;;15.18;9.07;;;;;;;5.49;76.46;100197.81;5031870;28;20113;-64
2022/11/28 00:02:42;;;;;;;12.50;8.07;;;;;;;5.56;74.56;100194.72;5032212;28;20415;-64
2022/11/28 00:05:12;;;;;;;13.13;7.47;;;;;;;5.47;73.77;100192.53;5011767;28;20029;-65
2022/11/28 00:07:37;;;;;;;12.13;7.70;;;;;;;5.40;75.95;100193.94;5032391;28;20022;-63
2022/11/28 00:10:04;;;;;;;13.88;6.97;;;;;;;5.41;74.61;100199.19;5032029;28;20033;-64
2022/11/28 00:12:29;;;;;;;11.20;6.68;;;;;;;5.31;74.13;100186.19;5014248;28;20459;-65
2022/11/28 00:14:55;;;;;;;9.32;6.07;;;;;;;5.33;74.52;100197.03;5031796;28;20033;-64
2022/11/28 00:17:20;;;;;;;15.07;7.57;;;;;;;5.30;75.13;100192.88;5031890;28;20400;-64
2022/11/28 00:19:46;;;;;;;13.52;7.47;;;;;;;5.23;75.64;100192.31;5031494;28;20036;-64
2022/11/28 00:22:11;;;;;;;14.93;8.48;;;;;;;5.36;75.78;100196.44;5031856;28;20672;-63
2022/11/28 00:24:38;;;;;;;13.07;8.70;;;;;;;5.27;77.55;100198.97;5031687;28;20026;-63
2022/11/28 00:27:04;;;;;;;11.45;7.35;;;;;;;5.32;76.97;100189.81;5031715;28;20025;-64
2022/11/28 00:29:29;;;;;;;13.65;8.40;;;;;;;5.15;78.78;100195.69;5031615;28;20500;-64
2022/11/28 00:31:55;;;;;;;15.15;8.93;;;;;;;5.14;78.90;100194.84;5031681;28;20026;-64
2022/11/28 00:34:20;;;;;;;15.13;8.45;;;;;;;5.17;79.07;100194.28;5013509;28;20515;-63
2022/11/28 00:36:47;;;;;;;17.27;9.55;;;;;;;5.23;79.45;100192.31;5031567;28;20025;-64
2022/11/28 00:39:13;;;;;;;14.65;9.40;;;;;;;5.19;80.24;100189.31;5029735;28;20092;-64
2022/11/28 00:41:39;;;;;;;15.77;8.82;;;;;;;5.29;80.04;100185.66;5031590;28;20044;-64
2022/11/28 00:44:04;;;;;;;15.38;9.20;;;;;;;5.31;79.64;100185.38;5030995;28;20021;-66
2022/11/28 00:46:30;;;;;;;11.45;7.78;;;;;;;5.29;80.81;100179.25;5031259;28;20049;-64
2022/11/28 00:48:57;;;;;;;15.90;9.77;;;;;;;5.13;82.02;100175.69;5013589;28;20497;-64
2022/11/28 00:51:28;;;;;;;15.38;9.07;;;;;;;5.14;83.25;100177.38;5031134;28;20038;-64
2022/11/28 00:53:56;;;;;;;18.92;10.40;;;;;;;5.14;82.36;100169.06;5013377;28;20486;-65
2022/11/28 00:56:25;;;;;;;17.10;10.10;;;;;;;5.07;84.31;100166.59;5031291;28;20036;-64
2022/11/28 00:58:51;;;;;;;20.98;9.80;;;;;;;5.15;84.84;100170.72;5031256;28;20021;-64
2022/11/28 01:01:22;;;;;;;18.02;9.60;;;;;;;5.18;84.19;100168.19;5013511;28;20125;-64
2022/11/28 01:03:49;;;;;;;30.58;12.82;;;;;;;5.05;84.98;100161.31;5013008;28;20542;-64
2022/11/28 01:06:30;;;;;;;16.25;10.02;;;;;;;4.97;85.64;100167.41;5030090;28;20026;-64
2022/11/28 01:09:02;;;;;;;18.95;11.38;;;;;;;4.97;85.93;100166.59;5031114;28;20040;-64
2022/11/28 01:11:28;;;;;;;21.30;12.23;;;;;;;4.97;86.12;100167.41;5033615;28;20040;-64
2022/11/28 01:13:56;;;;;;;20.98;12.15;;;;;;;5.03;86.56;100166.31;5037298;28;20506;-64
2022/11/28 01:16:22;;;;;;;22.63;12.05;;;;;;;5.03;85.43;100162.69;5037663;28;20068;-64
2022/11/28 01:18:47;;;;;;;24.35;11.88;;;;;;;4.99;86.86;100165.19;5036989;28;20103;-65
2022/11/28 01:21:13;;;;;;;21.40;11.20;;;;;;;4.85;87.32;100164.13;5019461;28;20066;-64
2022/11/28 01:23:38;;;;;;;20.73;10.93;;;;;;;4.96;87.80;100170.50;5019482;28;20025;-64
2022/11/28 01:26:06;;;;;;;20.23;11.60;;;;;;;4.92;87.42;100167.44;5037397;28;20032;-64
2022/11/28 01:28:32;;;;;;;18.60;11.13;;;;;;;4.77;88.48;100168.28;5037611;28;20024;-64
2022/11/28 01:31:06;;;;;;;18.45;11.02;;;;;;;5.04;87.63;100167.13;5019730;28;20087;-64
2022/11/28 01:33:32;;;;;;;17.92;11.25;;;;;;;5.02;87.23;100158.25;5037588;28;20140;-64
2022/11/28 01:35:58;;;;;;;19.30;11.30;;;;;;;4.84;88.15;100162.47;5019733;28;20040;-64
2022/11/28 01:38:24;;;;;;;20.08;12.18;;;;;;;4.72;89.42;100165.53;5037639;28;20080;-64
2022/11/28 01:40:50;;;;;;;22.52;11.85;;;;;;;4.86;89.73;100171.31;5037323;28;20038;-63
2022/11/28 01:43:16;;;;;;;19.02;10.88;;;;;;;4.86;89.27;100158.31;5037550;28;20027;-63
2022/11/28 01:45:41;;;;;;;20.50;11.63;;;;;;;4.98;88.89;100157.19;5037019;28;20083;-63
2022/11/28 01:48:10;;;;;;;16.88;10.70;;;;;;;4.97;88.36;100147.19;5019470;28;20041;-63
2022/11/28 01:50:37;;;;;;;19.35;10.25;;;;;;;4.91;88.63;100166.59;5037348;28;20084;-64
2022/11/28 01:53:08;;;;;;;15.65;9.40;;;;;;;4.88;89.20;100161.63;5037389;28;20037;-64
2022/11/28 01:55:45;;;;;;;18.80;10.23;;;;;;;4.81;89.69;100157.47;5019512;28;20041;-63
2022/11/28 01:58:13;;;;;;;18.70;11.20;;;;;;;4.98;89.59;100157.19;5019869;28;20057;-64
2022/11/28 02:00:38;;;;;;;15.32;9.68;;;;;;;4.94;89.14;100150.50;5034182;28;20100;-64
2022/11/28 02:03:13;;;;;;;19.77;11.32;;;;;;;4.92;89.16;100148.84;5043955;28;20029;-64
2022/11/28 02:05:39;;;;;;;15.05;9.70;;;;;;;5.13;88.24;100147.97;5037463;28;20533;-64
2022/11/28 02:08:07;;;;;;;18.48;10.25;;;;;;;5.29;87.69;100143.19;5035381;28;20021;-64
2022/11/28 02:10:50;;;;;;;16.05;9.60;;;;;;;5.22;87.33;100139.91;5033123;28;20115;-64
2022/11/28 02:13:39;;;;;;;17.70;9.88;;;;;;;5.15;88.19;100141.03;5019379;28;20024;-64
2022/11/28 02:16:19;;;;;;;18.25;9.98;;;;;;;5.22;88.16;100132.41;5037208;28;20032;-64
2022/11/28 02:18:53;;;;;;;14.18;9.57;;;;;;;5.31;87.48;100138.22;5037281;28;20389;-64
2022/11/28 02:21:40;;;;;;;17.40;8.23;;;;;;;5.31;87.27;100132.69;5037151;28;20029;-64
2022/11/28 02:24:14;;;;;;;16.45;10.18;;;;;;;5.11;88.45;100125.22;5033258;28;20030;-64
2022/11/28 02:27:10;;;;;;;14.73;8.80;;;;;;;5.19;88.24;100130.22;5016480;28;20508;-64
2022/11/28 02:29:42;;;;;;;15.35;10.23;;;;;;;5.25;88.61;100128.25;5033690;28;20021;-63
2022/11/28 02:32:35;;;;;;;16.00;9.25;;;;;;;5.37;87.20;100142.63;5033808;28;20072;-64
2022/11/28 02:35:27;;;;;;;19.73;9.52;;;;;;;5.44;87.66;100134.84;5033812;28;20484;-64
2022/11/28 02:38:19;;;;;;;16.30;9.73;;;;;;;5.44;87.56;100131.22;5033517;28;20136;-64
2022/11/28 02:40:52;;;;;;;17.90;10.00;;;;;;;5.56;87.65;100142.81;5015970;28;20029;-64
2022/11/28 02:43:30;;;;;;;21.08;10.50;;;;;;;5.56;87.33;100144.78;5033772;28;20021;-64
2022/11/28 02:46:19;;;;;;;16.98;9.98;;;;;;;5.62;86.95;100140.84;5013727;28;20050;-63
2022/11/28 02:49:05;;;;;;;19.13;10.27;;;;;;;5.57;86.83;100140.88;4996164;28;20046;-65
2022/11/28 02:51:34;;;;;;;19.45;10.55;;;;;;;5.47;87.67;100137.03;5030109;28;20036;-63
2022/11/28 02:54:02;;;;;;;15.68;9.50;;;;;;;5.37;88.57;100137.06;5015859;28;20075;-63
2022/11/28 02:56:27;;;;;;;15.55;10.77;;;;;;;5.44;88.65;100142.31;5033134;28;20030;-64
2022/11/28 02:58:53;;;;;;;18.27;10.35;;;;;;;5.31;88.52;100135.44;5015720;28;20033;-63
2022/11/28 03:01:24;;;;;;;22.20;10.70;;;;;;;5.38;88.24;100144.28;5015568;28;20398;-63
2022/11/28 03:03:58;;;;;;;15.57;9.60;;;;;;;5.51;88.10;100140.06;5033446;28;20036;-65
2022/11/28 03:06:46;;;;;;;16.10;10.00;;;;;;;5.50;87.55;100134.81;5015120;28;20492;-64
2022/11/28 03:09:46;;;;;;;16.90;9.85;;;;;;;5.41;88.16;100143.72;5033220;28;20112;-64
2022/11/28 03:12:22;;;;;;;14.93;10.10;;;;;;;5.42;88.53;100139.81;5033205;28;20025;-64
2022/11/28 03:14:55;;;;;;;17.35;11.10;;;;;;;5.34;88.47;100134.88;5033242;28;20603;-64
2022/11/28 03:17:36;;;;;;;13.70;8.82;;;;;;;5.40;88.24;100142.03;5033071;28;20013;-64
2022/11/28 03:20:20;;;;;;;14.88;9.20;;;;;;;5.31;88.97;100135.44;5033077;28;20025;-63
2022/11/28 03:22:51;;;;;;;20.63;9.65;;;;;;;5.44;88.66;100143.16;5015198;28;20060;-63
2022/11/28 03:25:48;;;;;;;18.73;8.57;;;;;;;5.38;88.37;100138.72;5033118;28;20029;-63
2022/11/28 03:28:17;;;;;;;14.98;8.80;;;;;;;5.34;88.50;100134.88;5015037;28;20041;-63
2022/11/28 03:30:49;;;;;;;18.25;9.57;;;;;;;5.38;88.06;100135.97;5032866;28;20488;-63
2022/11/28 03:33:20;;;;;;;14.88;8.60;;;;;;;5.42;88.08;100137.03;5015419;28;20052;-64
2022/11/28 03:35:47;;;;;;;;;;;;;;;5.34;87.89;100134.88;5032749;28;20040;-63
2022/11/28 03:38:19;;;;;;;15.55;8.73;;;;;;;5.02;89.60;100144.41;5032655;28;20384;-63
2022/11/28 03:40:49;;;;;;;17.70;9.02;;;;;;;4.95;90.29;100141.06;5032713;28;20156;-63
2022/11/28 03:43:20;;;;;;;17.60;9.77;;;;;;;4.86;90.50;100135.28;5014821;28;20029;-64
2022/11/28 03:45:52;;;;;;;16.20;8.70;;;;;;;4.94;89.62;100144.97;5014663;28;20539;-63
2022/11/28 03:48:27;;;;;;;16.15;8.73;;;;;;;4.80;89.75;100139.19;5032373;28;20037;-63
2022/11/28 03:50:59;;;;;;;11.68;7.57;;;;;;;4.85;90.72;100141.94;5014525;28;20037;-64
2022/11/28 03:53:35;;;;;;;17.08;8.55;;;;;;;4.80;90.53;100136.41;5014511;28;20033;-64
2022/11/28 03:56:13;;;;;;;14.27;9.27;;;;;;;4.77;90.79;100133.09;5032297;28;20053;-65
2022/11/28 03:59:40;;;;;;;15.15;8.63;;;;;;;4.78;90.50;100137.53;5032053;28;20056;-63
2022/11/28 04:02:17;;;;;;;16.75;9.13;;;;;;;4.85;89.41;100139.16;4971327;28;20031;-64
2022/11/28 04:04:50;;;;;;;15.13;8.18;;;;;;;4.89;89.71;100145.84;5024222;28;20045;-64
2022/11/28 04:07:26;;;;;;;16.17;8.70;;;;;;;5.01;88.43;100145.50;5032063;28;20030;-64
2022/11/28 04:10:21;;;;;;;13.93;7.95;;;;;;;4.95;88.38;100149.41;5011181;28;20037;-64
2022/11/28 04:13:16;;;;;;;14.77;9.30;;;;;;;4.83;89.28;100147.78;4990103;28;20080;-63
2022/11/28 04:16:08;;;;;;;16.33;9.35;;;;;;;4.86;89.15;100158.31;4992539;28;20045;-64
2022/11/28 04:18:47;;;;;;;16.05;9.20;;;;;;;4.89;88.42;100154.16;5026132;28;20104;-64
2022/11/28 04:21:29;;;;;;;16.33;9.32;;;;;;;4.90;89.43;100156.63;5028154;28;20036;-64
2022/11/28 04:24:00;;;;;;;16.05;9.75;;;;;;;5.03;88.53;100159.91;5032125;28;20492;-64
2022/11/28 04:26:35;;;;;;;15.43;8.95;;;;;;;5.08;88.51;100162.69;5031890;28;20088;-64
2022/11/28 04:29:08;;;;;;;13.10;8.90;;;;;;;5.09;88.56;100169.91;5031847;28;20048;-64
2022/11/28 04:31:36;;;;;;;12.77;7.78;;;;;;;5.05;88.64;100164.09;5031695;28;20112;-63
2022/11/28 04:34:06;;;;;;;16.17;8.68;;;;;;;5.13;87.55;100167.38;5014005;28;20033;-64
2022/11/28 04:36:36;;;;;;;14.80;9.18;;;;;;;5.09;87.82;100169.06;5026109;28;20504;-64
2022/11/28 04:39:05;;;;;;;14.10;8.65;;;;;;;5.25;87.35;100175.41;5031547;28;20104;-64
2022/11/28 04:41:41;;;;;;;15.48;9.93;;;;;;;5.26;87.50;100168.75;5030895;28;20026;-65
2022/11/28 04:44:24;;;;;;;13.73;7.97;;;;;;;5.29;87.35;100168.16;5030002;28;20036;-64
2022/11/28 04:46:53;;;;;;;14.00;8.48;;;;;;;5.34;86.38;100170.94;5012877;28;20136;-65
2022/11/28 04:49:19;;;;;;;13.13;8.20;;;;;;;5.23;85.94;100172.91;5031453;28;20033;-65
2022/11/28 04:51:58;;;;;;;14.80;8.90;;;;;;;4.76;87.85;100166.63;5031420;28;20100;-65
2022/11/28 04:54:36;;;;;;;13.95;8.30;;;;;;;4.73;88.35;100172.75;5031442;28;20083;-65
2022/11/28 04:57:27;;;;;;;13.27;7.95;;;;;;;4.96;87.35;100173.25;5030548;28;20025;-65
2022/11/28 04:59:54;;;;;;;12.23;7.97;;;;;;;5.08;87.50;100168.25;5030747;28;20120;-64
2022/11/28 05:02:21;;;;;;;14.32;8.52;;;;;;;5.18;87.04;100175.69;5009818;28;20068;-65
2022/11/28 05:04:47;;;;;;;13.25;8.18;;;;;;;4.59;88.23;100187.16;5027381;28;20045;-64
2022/11/28 05:07:12;;;;;;;13.98;8.30;;;;;;;4.37;89.78;100183.81;5031193;28;20032;-64
2022/11/28 05:09:38;;;;;;;13.85;8.07;;;;;;;4.48;90.09;100191.03;5013664;28;20025;-64
2022/11/28 05:12:04;;;;;;;15.40;8.23;;;;;;;4.22;89.58;100191.84;5013506;28;20474;-63
2022/11/28 05:14:29;;;;;;;12.10;7.50;;;;;;;4.30;90.08;100184.91;5013465;28;20029;-66
2022/11/28 05:16:55;;;;;;;21.25;10.25;;;;;;;4.34;91.22;100183.28;5030904;28;20029;-64
2022/11/28 05:19:20;;;;;;;11.07;6.97;;;;;;;4.26;90.38;100174.66;5031067;28;20030;-65
2022/11/28 05:21:46;;;;;;;15.73;8.45;;;;;;;4.20;91.45;100177.44;5031307;28;20049;-65
2022/11/28 05:24:11;;;;;;;15.43;7.68;;;;;;;4.02;91.81;100181.56;5013407;28;20044;-64
2022/11/28 05:26:37;;;;;;;13.73;8.35;;;;;;;4.15;91.90;100184.91;5031039;28;20033;-64
2022/11/28 05:29:03;;;;;;;14.70;7.57;;;;;;;4.38;91.11;100188.25;5031036;28;20061;-64
2022/11/28 05:31:29;;;;;;;13.18;8.18;;;;;;;4.46;90.85;100190.47;5012632;28;20060;-64
2022/11/28 05:33:55;;;;;;;16.40;9.02;;;;;;;4.15;91.81;100179.38;5030823;28;20091;-63
2022/11/28 05:36:20;;;;;;;15.35;8.80;;;;;;;4.10;92.89;100187.66;5031090;28;20022;-64
2022/11/28 05:38:46;;;;;;;17.63;9.27;;;;;;;4.06;93.65;100182.66;5012286;28;20022;-64
2022/11/28 05:41:24;;;;;;;22.85;13.15;;;;;;;3.89;94.18;100177.38;4993623;28;20096;-64
2022/11/28 05:43:51;;;;;;;43.92;21.88;;;;;;;3.78;95.71;100186.75;5011223;28;20497;-64
2022/11/28 05:46:17;;;;;;;45.83;21.17;;;;;;;3.77;95.90;100179.53;5019694;28;20045;-64
2022/11/28 05:48:42;;;;;;;30.75;18.23;;;;;;;3.79;96.07;100183.72;5013052;28;20392;-64
2022/11/28 05:51:08;;;;;;;26.65;17.48;;;;;;;3.86;96.04;100179.84;5013266;28;20034;-64
2022/11/28 05:53:33;;;;;;;22.77;14.93;;;;;;;3.60;95.80;100185.28;5029364;28;20075;-65
2022/11/28 05:56:04;;;;;;;26.75;13.93;;;;;;;3.46;95.93;100185.78;5030922;28;20033;-64
2022/11/28 05:58:29;;;;;;;37.85;19.92;;;;;;;3.67;96.01;100180.34;5015091;28;20124;-67
2022/11/28 06:00:55;;;;;;;35.03;17.85;;;;;;;3.77;95.72;100191.47;5034469;28;20037;-69
2022/11/28 06:03:20;;;;;;;20.55;11.45;;;;;;;3.91;95.44;100185.41;5034950;28;20025;-65
2022/11/28 06:05:47;;;;;;;19.17;11.13;;;;;;;3.90;94.69;100179.03;5016663;28;20129;-63
2022/11/28 06:08:12;;;;;;;19.10;10.40;;;;;;;3.55;93.08;100183.34;5034018;28;20041;-64
2022/11/28 06:10:38;;;;;;;17.67;9.88;;;;;;;4.09;92.63;100200.69;5034386;28;20032;-65
2022/11/28 06:13:04;;;;;;;210.23;124.30;;;;;;;4.38;91.25;100200.16;5034230;28;20030;-63
2022/11/28 06:15:31;;;;;;;34.05;20.08;;;;;;;4.54;90.83;100203.78;5034304;28;20026;-65
2022/11/28 06:17:56;;;;;;;73.22;38.50;;;;;;;4.53;89.58;100204.88;5016544;28;20404;-66
2022/11/28 06:20:22;;;;;;;67.28;31.75;;;;;;;4.45;90.72;100197.09;5016423;28;20036;-65
2022/11/28 06:22:47;;;;;;;25.17;11.90;;;;;;;4.55;90.34;100199.88;5029294;28;20504;-66
2022/11/28 06:25:13;;;;;;;42.03;22.63;;;;;;;4.66;89.49;100206.28;5013630;28;20033;-66
2022/11/28 06:27:38;;;;;;;39.83;20.25;;;;;;;4.72;89.09;100196.84;5002509;28;20477;-66
2022/11/28 06:30:05;;;;;;;43.55;18.77;;;;;;;4.55;89.38;100202.66;5007280;28;20444;-66
2022/11/28 06:32:31;;;;;;;27.73;13.18;;;;;;;4.47;90.07;100206.00;5011518;28;20029;-67
2022/11/28 06:34:56;;;;;;;44.55;18.25;;;;;;;4.56;89.09;100193.22;5011502;28;20029;-65
2022/11/28 06:37:22;;;;;;;44.83;16.20;;;;;;;4.56;89.55;100204.31;5026635;28;20074;-66
2022/11/28 06:39:50;;;;;;;29.05;12.98;;;;;;;4.63;89.81;100204.88;5020483;28;20532;-66
2022/11/28 06:42:15;;;;;;;38.47;16.38;;;;;;;4.59;89.69;100206.56;5020515;28;20033;-66
2022/11/28 06:44:41;;;;;;;28.02;13.15;;;;;;;4.53;89.01;100207.66;5005950;28;20029;-66
2022/11/28 06:47:07;;;;;;;25.05;11.48;;;;;;;4.47;88.89;100204.03;5006288;28;20505;-67
2022/11/28 06:49:32;;;;;;;16.98;9.15;;;;;;;4.26;89.27;100197.66;5020205;28;20877;-66
2022/11/28 06:51:57;;;;;;;14.95;9.30;;;;;;;4.50;89.27;100199.91;5019726;28;20440;-66
2022/11/28 06:54:23;;;;;;;106.13;63.05;;;;;;;4.40;88.92;100205.44;5019127;28;20408;-67
2022/11/28 06:56:48;;;;;;;20.15;10.57;;;;;;;4.42;89.00;100204.06;5026480;28;20277;-66
2022/11/28 06:59:14;;;;;;;20.33;11.82;;;;;;;4.50;89.84;100206.25;4998104;28;20037;-66
2022/11/28 07:01:39;;;;;;;26.65;13.77;;;;;;;4.46;89.66;100205.16;5019811;28;20021;-66
2022/11/28 07:04:05;;;;;;;23.13;12.45;;;;;;;4.50;90.32;100203.47;4998219;28;20030;-66
2022/11/28 07:06:30;;;;;;;18.67;11.48;;;;;;;4.53;89.65;100202.09;5005867;28;20029;-66
2022/11/28 07:08:57;;;;;;;15.65;9.40;;;;;;;4.38;89.40;100193.78;5021023;28;20054;-65
2022/11/28 07:11:27;;;;;;;24.45;11.60;;;;;;;4.30;89.72;100206.25;5010651;28;20249;-64
2022/11/28 07:13:54;;;;;;;18.48;10.48;;;;;;;4.48;89.77;100189.09;5030513;28;20029;-65
2022/11/28 07:16:26;;;;;;;39.65;23.10;;;;;;;4.52;89.15;100188.53;5030392;28;20032;-66
2022/11/28 07:18:52;;;;;;;29.55;22.15;;;;;;;4.34;89.98;100191.59;5011523;28;20128;-68
2022/11/28 07:21:19;;;;;;;161.93;102.13;;;;;;;4.03;91.40;100188.75;5023322;28;20033;-66
2022/11/28 07:23:45;;;;;;;52.70;28.83;;;;;;;3.99;92.00;100182.13;5024410;28;20052;-66
2022/11/28 07:26:14;;;;;;;119.72;65.55;;;;;;;3.97;92.35;100189.03;5023385;28;20108;-64
2022/11/28 07:28:40;;;;;;;41.22;22.67;;;;;;;3.76;93.15;100189.81;5024710;28;20021;-65
2022/11/28 07:31:16;;;;;;;25.80;15.77;;;;;;;3.71;93.63;100189.75;5018694;28;20061;-66
2022/11/28 07:33:43;;;;;;;40.20;26.95;;;;;;;3.75;94.04;100190.91;5020524;28;20544;-66
2022/11/28 07:36:15;;;;;;;31.15;20.80;;;;;;;3.73;94.42;100189.50;5008538;28;20025;-69
2022/11/28 07:38:41;;;;;;;48.88;32.75;;;;;;;3.59;94.70;100194.69;5028637;28;20028;-68
2022/11/28 07:41:12;;;;;;;86.82;46.45;;;;;;;3.66;94.13;100189.75;5009605;28;20033;-67
2022/11/28 07:43:38;;;;;;;170.50;79.35;;;;;;;3.75;94.61;100188.13;5006915;28;20042;-72
2022/11/28 07:46:07;;;;;;;25.48;14.27;;;;;;;3.61;94.21;100189.72;5012682;28;20134;-67
2022/11/28 07:48:34;;;;;;;35.45;18.55;;;;;;;3.77;93.59;100191.47;4999497;28;20099;-67
2022/11/28 07:51:04;;;;;;;21.40;11.65;;;;;;;3.76;94.88;100183.41;5030668;28;20029;-65
2022/11/28 07:53:30;;;;;;;20.60;12.15;;;;;;;3.77;93.57;100177.63;5012289;28;20038;-66
2022/11/28 07:55:55;;;;;;;19.00;10.52;;;;;;;3.80;93.70;100167.91;5018325;28;20394;-65
2022/11/28 07:58:21;;;;;;;20.92;11.98;;;;;;;3.97;92.60;100175.19;5025019;28;20033;-67
2022/11/28 08:00:47;;;;;;;17.02;10.55;;;;;;;4.12;91.97;100174.38;5015413;28;20036;-68
2022/11/28 08:03:12;;;;;;;21.42;9.57;;;;;;;4.04;91.76;100179.34;5026034;28;20035;-70
2022/11/28 08:05:38;;;;;;;18.52;9.27;;;;;;;3.88;91.93;100174.88;5020942;28;20029;-70
2022/11/28 08:08:04;;;;;;;20.33;12.88;;;;;;;3.90;93.19;100162.41;5011437;28;20029;-68
2022/11/28 08:10:29;;;;;;;20.55;12.07;;;;;;;3.91;93.09;100163.25;5028347;28;20040;-66
2022/11/28 08:12:55;;;;;;;33.13;14.18;;;;;;;3.85;92.40;100151.34;5028108;28;20037;-67
2022/11/28 08:15:20;;;;;;;28.75;16.98;;;;;;;3.77;93.15;100163.78;5028674;28;20032;-68
2022/11/28 08:17:45;;;;;;;23.45;14.00;;;;;;;3.56;95.12;100165.66;5009324;28;20029;-68
2022/11/28 08:20:11;;;;;;;26.33;14.75;;;;;;;3.51;95.31;100160.94;5011030;28;20029;-68
2022/11/28 08:22:37;;;;;;;22.70;13.30;;;;;;;3.40;95.71;100159.22;5013501;28;20030;-66
2022/11/28 08:25:03;;;;;;;21.35;13.30;;;;;;;3.35;94.56;100164.72;5018746;28;20025;-68
2022/11/28 08:27:28;;;;;;;29.77;16.13;;;;;;;3.31;96.35;100160.84;5008138;28;20021;-68
2022/11/28 08:29:54;;;;;;;25.45;14.65;;;;;;;3.07;96.10;100150.22;5028421;28;20021;-68
2022/11/28 08:32:19;;;;;;;28.42;14.48;;;;;;;3.27;96.56;100168.03;5016366;28;20029;-68
2022/11/28 08:34:45;;;;;;;26.27;15.07;;;;;;;3.08;96.34;100157.41;5029590;28;20021;-67
2022/11/28 08:37:10;;;;;;;20.17;12.95;;;;;;;3.32;97.12;100162.50;5031175;28;20071;-67
2022/11/28 08:39:35;;;;;;;23.20;14.45;;;;;;;3.30;96.81;100170.25;5031288;28;20033;-67
2022/11/28 08:42:01;;;;;;;24.58;15.38;;;;;;;3.60;96.95;100163.16;5028053;28;20021;-67
2022/11/28 08:44:27;;;;;;;27.83;17.55;;;;;;;3.44;96.97;100156.72;5026428;28;20025;-67
2022/11/28 08:46:53;;;;;;;28.55;15.82;;;;;;;3.50;96.63;100155.66;5012880;28;20038;-70
2022/11/28 08:49:18;;;;;;;19.52;12.43;;;;;;;3.46;96.92;100154.56;5030424;28;20493;-68
2022/11/28 08:51:44;;;;;;;24.20;14.00;;;;;;;3.32;97.54;100151.44;5031237;28;20021;-71
2022/11/28 08:54:10;;;;;;;23.10;13.88;;;;;;;3.41;98.29;100149.84;5013498;28;20022;-65
2022/11/28 08:56:35;;;;;;;20.70;12.95;;;;;;;3.50;98.95;100139.91;5030651;28;20021;-67
2022/11/28 08:59:01;;;;;;;34.08;18.40;;;;;;;3.56;98.55;100140.75;5013520;28;20022;-67
2022/11/28 09:01:26;;;;;;;57.92;31.27;;;;;;;3.56;98.27;100146.28;5031344;28;20014;-67
2022/11/28 09:03:53;;;;;;;23.63;15.40;;;;;;;3.55;98.29;100152.91;5012949;28;20110;-67
2022/11/28 09:06:20;;;;;;;19.27;12.73;;;;;;;3.57;97.03;100142.44;5030415;28;20041;-69
2022/11/28 09:08:46;;;;;;;22.83;14.50;;;;;;;3.55;97.33;100135.50;5031011;28;20024;-67
2022/11/28 09:11:14;;;;;;;22.83;13.80;;;;;;;3.50;96.46;100126.09;5009564;28;20033;-66
2022/11/28 09:13:40;;;;;;;44.28;18.00;;;;;;;3.68;97.65;100123.91;5007217;28;20112;-67
2022/11/28 09:16:06;;;;;;;99.63;40.75;;;;;;;3.70;96.84;100118.94;5028291;28;20057;-66
2022/11/28 09:18:32;;;;;;;44.70;21.92;;;;;;;3.66;94.53;100117.81;5030746;28;20018;-66
2022/11/28 09:21:08;;;;;;;28.27;18.02;;;;;;;3.85;97.13;100111.75;5013289;28;20491;-65
2022/11/28 09:23:34;;;;;;;19.13;12.68;;;;;;;4.00;93.74;100109.03;5030599;28;20026;-67
2022/11/28 09:25:59;;;;;;;14.88;9.68;;;;;;;3.80;92.97;100112.56;5030639;28;20115;-66
2022/11/28 09:28:27;;;;;;;14.13;9.68;;;;;;;3.93;92.75;100105.69;5037285;28;20108;-66
2022/11/28 09:31:14;;;;;;;19.42;12.15;;;;;;;4.07;92.46;100106.81;5010335;28;20507;-67
2022/11/28 09:33:40;;;;;;;19.00;13.27;;;;;;;3.99;92.74;100099.06;5033138;28;20029;-66
2022/11/28 09:36:08;;;;;;;18.95;12.52;;;;;;;4.21;92.89;100098.78;5003195;28;20120;-67
2022/11/28 09:38:34;;;;;;;19.40;13.30;;;;;;;4.28;91.48;100090.19;5028554;28;20033;-67
2022/11/28 09:41:01;;;;;;;22.55;15.45;;;;;;;4.39;91.20;100091.00;5020524;28;20074;-69
2022/11/28 09:43:30;;;;;;;23.60;16.25;;;;;;;4.63;91.20;100090.41;5026289;28;20057;-68
2022/11/28 09:45:58;;;;;;;20.40;14.23;;;;;;;4.74;90.91;100092.06;5033472;28;20075;-68
2022/11/28 09:48:30;;;;;;;17.55;11.77;;;;;;;4.47;91.26;100082.16;5016542;28;20034;-68
2022/11/28 09:51:16;;;;;;;33.42;23.27;;;;;;;4.59;91.17;100069.94;5034379;28;20040;-70
2022/11/28 09:53:49;;;;;;;37.20;17.60;;;;;;;4.67;90.76;100065.75;5022601;28;20464;-68
2022/11/28 09:56:18;;;;;;;22.00;14.77;;;;;;;4.40;91.39;100076.03;5022859;28;20021;-68
2022/11/28 09:58:57;;;;;;;23.73;14.73;;;;;;;4.43;91.67;100074.66;5029099;28;20072;-68
2022/11/28 10:01:23;;;;;;;22.70;13.10;;;;;;;4.66;91.72;100066.88;5030344;28;20025;-74
2022/11/28 10:04:02;;;;;;;23.70;12.32;;;;;;;4.45;91.54;100055.81;5031161;28;20088;-68
2022/11/28 10:06:43;;;;;;;20.00;14.25;;;;;;;4.21;92.45;100054.47;5033425;28;20025;-68
2022/11/28 10:09:29;;;;;;;23.17;15.25;;;;;;;4.22;94.16;100058.06;5015624;28;20080;-68
2022/11/28 10:12:13;;;;;;;18.95;13.98;;;;;;;4.32;92.36;100058.06;5033587;28;20412;-68
2022/11/28 10:15:01;;;;;;;21.08;14.55;;;;;;;4.31;93.13;100056.41;5011030;28;20022;-68
2022/11/28 10:17:38;;;;;;;18.77;12.50;;;;;;;4.03;91.52;100055.88;5031262;28;20032;-68
2022/11/28 10:20:09;;;;;;;24.83;15.20;;;;;;;4.11;95.37;100048.94;5030762;28;20108;-68
2022/11/28 10:22:47;;;;;;;17.02;11.93;;;;;;;4.12;93.49;100041.47;5005819;28;20067;-69
2022/11/28 10:25:18;;;;;;;22.17;13.35;;;;;;;4.30;93.53;100042.84;5012055;28;20614;-67
2022/11/28 10:27:45;;;;;;;13.57;9.93;;;;;;;4.39;92.09;100037.56;5031227;28;20100;-68
2022/11/28 10:30:29;;;;;;;11.73;9.07;;;;;;;4.15;90.27;100035.38;5030608;28;20025;-68
2022/11/28 10:33:01;;;;;;;13.88;9.70;;;;;;;4.36;91.07;100033.41;5026348;28;20029;-67
2022/11/28 10:35:38;;;;;;;16.13;10.18;;;;;;;4.71;90.11;100030.84;5034115;28;20022;-64
2022/11/28 10:38:11;;;;;;;26.15;14.48;;;;;;;4.81;89.33;100027.19;5004017;28;20021;-67
2022/11/28 10:40:43;;;;;;;26.83;15.80;;;;;;;5.03;87.96;100026.81;5030892;28;20018;-67
2022/11/28 10:43:37;;;;;;;17.38;11.68;;;;;;;4.96;89.12;100023.53;5002975;28;20170;-68
2022/11/28 10:46:40;;;;;;;20.23;12.90;;;;;;;5.11;88.20;100012.38;5020099;28;20041;-68
2022/11/28 10:49:30;;;;;;;38.05;25.77;;;;;;;5.48;86.82;100012.97;4980144;28;20490;-68
2022/11/28 10:52:18;;;;;;;20.17;12.05;;;;;;;5.46;86.72;100018.00;5014015;28;20030;-68
2022/11/28 10:54:49;;;;;;;20.67;12.52;;;;;;;5.53;85.82;100012.97;5025116;28;20040;-68
2022/11/28 10:57:27;;;;;;;19.67;11.27;;;;;;;5.36;85.68;100007.81;5015132;28;20032;-68
2022/11/28 11:00:04;;;;;;;77.55;45.70;;;;;;;5.72;85.39;100006.72;5018431;28;20040;-68
2022/11/28 11:02:39;;;;;;;45.08;28.10;;;;;;;5.76;85.20;100011.41;5028514;28;20029;-68
2022/11/28 11:05:10;;;;;;;29.33;19.92;;;;;;;5.59;85.26;100005.44;5016894;28;20021;-68
2022/11/28 11:07:36;;;;;;;32.72;24.85;;;;;;;5.72;84.83;100009.47;5018699;28;20405;-68
2022/11/28 11:10:15;;;;;;;14.75;9.60;;;;;;;5.26;86.43;99999.53;5031226;28;20033;-68
2022/11/28 11:12:42;;;;;;;24.02;16.13;;;;;;;5.53;85.04;100003.78;5031764;28;20079;-68
2022/11/28 11:15:31;;;;;;;11.27;7.95;;;;;;;5.24;83.35;99999.00;5033232;28;20033;-68
2022/11/28 11:18:02;;;;;;;15.93;10.40;;;;;;;4.91;86.50;99988.34;5032539;28;20068;-69
2022/11/28 11:20:32;;;;;;;120.97;81.22;;;;;;;5.37;86.40;99987.25;5015328;28;20031;-69
2022/11/28 11:23:00;;;;;;;26.55;19.65;;;;;;;5.39;85.37;99993.34;5004499;28;20057;-68
2022/11/28 11:25:28;;;;;;;12.55;9.10;;;;;;;5.46;85.35;99990.25;5025452;28;20018;-68
2022/11/28 11:27:59;;;;;;;15.50;10.40;;;;;;;5.31;85.50;99991.19;5032324;28;20088;-68
2022/11/28 11:30:27;;;;;;;12.02;8.52;;;;;;;5.28;85.45;99994.53;5032611;28;20079;-68
2022/11/28 11:32:55;;;;;;;13.07;9.63;;;;;;;5.29;87.11;99985.09;5032296;28;20028;-68
2022/11/28 11:35:24;;;;;;;12.70;9.52;;;;;;;5.39;86.80;99985.03;5030558;28;20026;-68
2022/11/28 11:37:51;;;;;;;24.98;17.70;;;;;;;5.57;84.30;99977.97;5032929;28;20027;-68